sensor_id;sensor_type;location;lat;lon;timestamp;P1;durP1;ratioP1;P2;durP2;ratioP2
27804;SDS011;15183;51.350;11.102;2023-07-24T00:02:22;2.63;;;1.80;;
27804;SDS011;15183;51.350;11.102;2023-07-24T00:04:49;3.20;;;1.70;;
27804;SDS011;15183;51.350;11.102;2023-07-24T00:07:15;2.40;;;1.95;;
27804;SDS011;15183;51.350;11.102;2023-07-24T00:09:42;3.28;;;1.45;;
27804;SDS011;15183;51.350;11.102;2023-07-24T00:12:08;4.15;;;2.63;;
27804;SDS011;15183;51.350;11.102;2023-07-24T00:14:34;1.95;;;1.80;;
27804;SDS011;15183;51.350;11.102;2023-07-24T00:17:01;3.15;;;2.25;;
27804;SDS011;15183;51.350;11.102;2023-07-24T00:19:27;1.50;;;1.30;;
27804;SDS011;15183;51.350;11.102;2023-07-24T00:21:54;2.17;;;1.90;;
27804;SDS011;15183;51.350;11.102;2023-07-24T00:24:20;1.65;;;1.52;;
27804;SDS011;15183;51.350;11.102;2023-07-24T00:26:46;1.33;;;1.23;;
27804;SDS011;15183;51.350;11.102;2023-07-24T00:29:13;2.47;;;2.03;;
27804;SDS011;15183;51.350;11.102;2023-07-24T00:31:39;1.63;;;1.52;;
27804;SDS011;15183;51.350;11.102;2023-07-24T00:34:06;2.20;;;2.00;;
27804;SDS011;15183;51.350;11.102;2023-07-24T00:36:32;1.85;;;1.52;;
27804;SDS011;15183;51.350;11.102;2023-07-24T00:38:59;1.70;;;1.60;;
27804;SDS011;15183;51.350;11.102;2023-07-24T00:41:25;2.00;;;1.80;;
27804;SDS011;15183;51.350;11.102;2023-07-24T00:43:51;2.03;;;1.83;;
27804;SDS011;15183;51.350;11.102;2023-07-24T00:46:18;1.70;;;1.60;;
27804;SDS011;15183;51.350;11.102;2023-07-24T00:48:44;1.77;;;1.38;;
27804;SDS011;15183;51.350;11.102;2023-07-24T00:51:11;1.63;;;1.30;;
27804;SDS011;15183;51.350;11.102;2023-07-24T00:53:37;1.73;;;1.60;;
27804;SDS011;15183;51.350;11.102;2023-07-24T00:56:04;1.33;;;1.20;;
27804;SDS011;15183;51.350;11.102;2023-07-24T00:58:31;1.35;;;1.20;;
27804;SDS011;15183;51.350;11.102;2023-07-24T01:00:58;1.58;;;1.40;;
27804;SDS011;15183;51.350;11.102;2023-07-24T01:03:27;2.72;;;1.85;;
27804;SDS011;15183;51.350;11.102;2023-07-24T01:06:01;1.75;;;1.65;;
27804;SDS011;15183;51.350;11.102;2023-07-24T01:08:28;1.30;;;1.20;;
27804;SDS011;15183;51.350;11.102;2023-07-24T01:10:59;1.92;;;1.70;;
27804;SDS011;15183;51.350;11.102;2023-07-24T01:13:36;2.20;;;1.27;;
27804;SDS011;15183;51.350;11.102;2023-07-24T01:16:13;0.90;;;0.90;;
27804;SDS011;15183;51.350;11.102;2023-07-24T01:18:44;0.70;;;0.70;;
27804;SDS011;15183;51.350;11.102;2023-07-24T01:21:11;1.00;;;0.88;;
27804;SDS011;15183;51.350;11.102;2023-07-24T01:26:35;2.45;;;1.70;;
27804;SDS011;15183;51.350;11.102;2023-07-24T01:29:01;1.00;;;1.00;;
27804;SDS011;15183;51.350;11.102;2023-07-24T01:31:28;1.10;;;1.00;;
27804;SDS011;15183;51.350;11.102;2023-07-24T01:33:55;1.10;;;0.95;;
27804;SDS011;15183;51.350;11.102;2023-07-24T01:36:22;1.05;;;0.82;;
27804;SDS011;15183;51.350;11.102;2023-07-24T01:38:50;1.00;;;0.90;;
27804;SDS011;15183;51.350;11.102;2023-07-24T01:41:16;1.42;;;1.33;;
27804;SDS011;15183;51.350;11.102;2023-07-24T01:43:44;1.13;;;1.02;;
27804;SDS011;15183;51.350;11.102;2023-07-24T01:46:10;1.10;;;1.00;;
27804;SDS011;15183;51.350;11.102;2023-07-24T01:48:36;0.93;;;0.93;;
27804;SDS011;15183;51.350;11.102;2023-07-24T01:51:03;1.30;;;0.90;;
27804;SDS011;15183;51.350;11.102;2023-07-24T01:53:29;1.35;;;1.00;;
27804;SDS011;15183;51.350;11.102;2023-07-24T01:55:57;1.27;;;1.17;;
27804;SDS011;15183;51.350;11.102;2023-07-24T01:58:24;2.45;;;0.80;;
27804;SDS011;15183;51.350;11.102;2023-07-24T02:00:50;2.22;;;1.52;;
27804;SDS011;15183;51.350;11.102;2023-07-24T02:03:20;1.20;;;1.10;;
27804;SDS011;15183;51.350;11.102;2023-07-24T02:05:50;2.00;;;1.80;;
27804;SDS011;15183;51.350;11.102;2023-07-24T02:08:17;2.70;;;2.33;;
27804;SDS011;15183;51.350;11.102;2023-07-24T02:10:43;2.17;;;1.80;;
27804;SDS011;15183;51.350;11.102;2023-07-24T02:13:14;1.35;;;1.20;;
27804;SDS011;15183;51.350;11.102;2023-07-24T02:15:40;2.45;;;2.25;;
27804;SDS011;15183;51.350;11.102;2023-07-24T02:18:07;2.50;;;2.25;;
27804;SDS011;15183;51.350;11.102;2023-07-24T02:20:33;3.42;;;2.38;;
27804;SDS011;15183;51.350;11.102;2023-07-24T02:22:59;3.70;;;2.58;;
27804;SDS011;15183;51.350;11.102;2023-07-24T02:25:26;3.83;;;2.40;;
27804;SDS011;15183;51.350;11.102;2023-07-24T02:27:52;2.42;;;2.22;;
27804;SDS011;15183;51.350;11.102;2023-07-24T02:30:19;3.40;;;3.10;;
27804;SDS011;15183;51.350;11.102;2023-07-24T02:32:45;4.88;;;2.97;;
27804;SDS011;15183;51.350;11.102;2023-07-24T02:35:11;3.40;;;3.08;;
27804;SDS011;15183;51.350;11.102;2023-07-24T02:37:38;2.25;;;2.05;;
27804;SDS011;15183;51.350;11.102;2023-07-24T02:40:04;1.63;;;1.50;;
27804;SDS011;15183;51.350;11.102;2023-07-24T02:42:32;3.15;;;1.42;;
27804;SDS011;15183;51.350;11.102;2023-07-24T02:44:58;1.95;;;1.00;;
27804;SDS011;15183;51.350;11.102;2023-07-24T02:47:25;0.90;;;0.90;;
27804;SDS011;15183;51.350;11.102;2023-07-24T02:49:51;2.65;;;0.90;;
27804;SDS011;15183;51.350;11.102;2023-07-24T02:52:17;1.30;;;1.00;;
27804;SDS011;15183;51.350;11.102;2023-07-24T02:54:44;1.02;;;1.00;;
27804;SDS011;15183;51.350;11.102;2023-07-24T02:57:10;1.75;;;1.20;;
27804;SDS011;15183;51.350;11.102;2023-07-24T02:59:37;2.22;;;1.70;;
27804;SDS011;15183;51.350;11.102;2023-07-24T03:02:03;3.40;;;2.60;;
27804;SDS011;15183;51.350;11.102;2023-07-24T03:04:30;3.65;;;3.25;;
27804;SDS011;15183;51.350;11.102;2023-07-24T03:06:56;3.05;;;2.75;;
27804;SDS011;15183;51.350;11.102;2023-07-24T03:09:23;3.67;;;2.25;;
27804;SDS011;15183;51.350;11.102;2023-07-24T03:11:49;2.10;;;1.85;;
27804;SDS011;15183;51.350;11.102;2023-07-24T03:14:15;2.35;;;2.15;;
27804;SDS011;15183;51.350;11.102;2023-07-24T03:16:42;2.13;;;1.98;;
27804;SDS011;15183;51.350;11.102;2023-07-24T03:19:08;3.40;;;2.25;;
27804;SDS011;15183;51.350;11.102;2023-07-24T03:21:35;2.28;;;2.08;;
27804;SDS011;15183;51.350;11.102;2023-07-24T03:24:01;2.70;;;2.22;;
27804;SDS011;15183;51.350;11.102;2023-07-24T03:26:28;2.42;;;2.20;;
27804;SDS011;15183;51.350;11.102;2023-07-24T03:28:54;2.05;;;1.85;;
27804;SDS011;15183;51.350;11.102;2023-07-24T03:31:20;1.55;;;1.42;;
27804;SDS011;15183;51.350;11.102;2023-07-24T03:33:47;1.60;;;1.48;;
27804;SDS011;15183;51.350;11.102;2023-07-24T03:36:13;1.83;;;1.63;;
27804;SDS011;15183;51.350;11.102;2023-07-24T03:38:40;2.42;;;2.20;;
27804;SDS011;15183;51.350;11.102;2023-07-24T03:41:06;1.58;;;1.48;;
27804;SDS011;15183;51.350;11.102;2023-07-24T03:43:33;1.20;;;1.08;;
27804;SDS011;15183;51.350;11.102;2023-07-24T03:45:59;1.58;;;1.38;;
27804;SDS011;15183;51.350;11.102;2023-07-24T03:48:25;1.90;;;1.60;;
27804;SDS011;15183;51.350;11.102;2023-07-24T03:50:57;1.10;;;1.10;;
27804;SDS011;15183;51.350;11.102;2023-07-24T03:53:28;1.50;;;1.40;;
27804;SDS011;15183;51.350;11.102;2023-07-24T03:55:54;1.60;;;1.20;;
27804;SDS011;15183;51.350;11.102;2023-07-24T03:58:21;1.55;;;1.45;;
27804;SDS011;15183;51.350;11.102;2023-07-24T04:00:47;1.80;;;1.23;;
27804;SDS011;15183;51.350;11.102;2023-07-24T04:03:14;1.92;;;1.10;;
27804;SDS011;15183;51.350;11.102;2023-07-24T04:05:41;2.22;;;1.30;;
27804;SDS011;15183;51.350;11.102;2023-07-24T04:08:07;1.55;;;1.45;;
27804;SDS011;15183;51.350;11.102;2023-07-24T04:10:34;1.52;;;1.42;;
27804;SDS011;15183;51.350;11.102;2023-07-24T04:13:00;2.28;;;1.27;;
27804;SDS011;15183;51.350;11.102;2023-07-24T04:15:26;2.60;;;1.50;;
27804;SDS011;15183;51.350;11.102;2023-07-24T04:17:53;2.72;;;1.08;;
27804;SDS011;15183;51.350;11.102;2023-07-24T04:20:19;1.20;;;1.08;;
27804;SDS011;15183;51.350;11.102;2023-07-24T04:22:46;2.50;;;1.52;;
27804;SDS011;15183;51.350;11.102;2023-07-24T04:25:12;2.08;;;1.60;;
27804;SDS011;15183;51.350;11.102;2023-07-24T04:27:39;1.88;;;1.38;;
27804;SDS011;15183;51.350;11.102;2023-07-24T04:30:06;1.40;;;1.30;;
27804;SDS011;15183;51.350;11.102;2023-07-24T04:32:33;2.25;;;1.50;;
27804;SDS011;15183;51.350;11.102;2023-07-24T04:34:59;1.40;;;1.30;;
27804;SDS011;15183;51.350;11.102;2023-07-24T04:37:26;1.33;;;0.93;;
27804;SDS011;15183;51.350;11.102;2023-07-24T04:39:52;1.33;;;1.08;;
27804;SDS011;15183;51.350;11.102;2023-07-24T04:42:18;1.23;;;0.90;;
27804;SDS011;15183;51.350;11.102;2023-07-24T04:44:45;5.80;;;1.33;;
27804;SDS011;15183;51.350;11.102;2023-07-24T04:47:11;1.70;;;1.23;;
27804;SDS011;15183;51.350;11.102;2023-07-24T04:49:38;2.38;;;1.10;;
27804;SDS011;15183;51.350;11.102;2023-07-24T04:52:04;2.85;;;1.00;;
27804;SDS011;15183;51.350;11.102;2023-07-24T04:54:31;1.10;;;1.00;;
27804;SDS011;15183;51.350;11.102;2023-07-24T04:56:57;1.13;;;0.80;;
27804;SDS011;15183;51.350;11.102;2023-07-24T04:59:24;1.85;;;1.50;;
27804;SDS011;15183;51.350;11.102;2023-07-24T05:01:50;1.05;;;0.95;;
27804;SDS011;15183;51.350;11.102;2023-07-24T05:04:16;1.83;;;1.17;;
27804;SDS011;15183;51.350;11.102;2023-07-24T05:06:43;1.25;;;1.10;;
27804;SDS011;15183;51.350;11.102;2023-07-24T05:09:09;2.00;;;1.40;;
27804;SDS011;15183;51.350;11.102;2023-07-24T05:11:36;1.17;;;1.08;;
27804;SDS011;15183;51.350;11.102;2023-07-24T05:14:02;1.05;;;1.02;;
27804;SDS011;15183;51.350;11.102;2023-07-24T05:16:28;3.92;;;1.00;;
27804;SDS011;15183;51.350;11.102;2023-07-24T05:18:55;1.98;;;1.00;;
27804;SDS011;15183;51.350;11.102;2023-07-24T05:21:21;1.10;;;1.00;;
27804;SDS011;15183;51.350;11.102;2023-07-24T05:23:48;4.40;;;1.20;;
27804;SDS011;15183;51.350;11.102;2023-07-24T05:26:14;2.78;;;1.20;;
27804;SDS011;15183;51.350;11.102;2023-07-24T05:28:41;1.48;;;1.27;;
27804;SDS011;15183;51.350;11.102;2023-07-24T05:31:07;1.80;;;1.10;;
27804;SDS011;15183;51.350;11.102;2023-07-24T05:33:33;1.10;;;0.90;;
27804;SDS011;15183;51.350;11.102;2023-07-24T05:36:00;2.35;;;0.90;;
27804;SDS011;15183;51.350;11.102;2023-07-24T05:38:29;0.80;;;0.80;;
27804;SDS011;15183;51.350;11.102;2023-07-24T05:40:59;1.65;;;1.00;;
27804;SDS011;15183;51.350;11.102;2023-07-24T05:43:28;1.30;;;0.93;;
27804;SDS011;15183;51.350;11.102;2023-07-24T05:45:56;1.20;;;0.90;;
27804;SDS011;15183;51.350;11.102;2023-07-24T05:48:23;1.02;;;0.98;;
27804;SDS011;15183;51.350;11.102;2023-07-24T05:50:50;2.17;;;1.85;;
27804;SDS011;15183;51.350;11.102;2023-07-24T05:53:17;3.58;;;1.70;;
27804;SDS011;15183;51.350;11.102;2023-07-24T05:55:43;2.35;;;1.33;;
27804;SDS011;15183;51.350;11.102;2023-07-24T05:58:10;1.63;;;1.52;;
27804;SDS011;15183;51.350;11.102;2023-07-24T06:00:37;1.80;;;1.20;;
27804;SDS011;15183;51.350;11.102;2023-07-24T06:03:03;1.50;;;1.35;;
27804;SDS011;15183;51.350;11.102;2023-07-24T06:05:30;1.23;;;1.13;;
27804;SDS011;15183;51.350;11.102;2023-07-24T06:07:56;1.95;;;1.55;;
27804;SDS011;15183;51.350;11.102;2023-07-24T06:10:22;2.03;;;1.17;;
27804;SDS011;15183;51.350;11.102;2023-07-24T06:12:49;1.73;;;1.40;;
27804;SDS011;15183;51.350;11.102;2023-07-24T06:15:15;1.50;;;1.20;;
27804;SDS011;15183;51.350;11.102;2023-07-24T06:17:42;1.55;;;1.27;;
27804;SDS011;15183;51.350;11.102;2023-07-24T06:20:08;2.38;;;2.10;;
27804;SDS011;15183;51.350;11.102;2023-07-24T06:22:35;4.00;;;1.88;;
27804;SDS011;15183;51.350;11.102;2023-07-24T06:25:01;2.13;;;1.45;;
27804;SDS011;15183;51.350;11.102;2023-07-24T06:27:28;5.00;;;1.20;;
27804;SDS011;15183;51.350;11.102;2023-07-24T06:29:54;3.22;;;1.85;;
27804;SDS011;15183;51.350;11.102;2023-07-24T06:32:21;2.47;;;1.67;;
27804;SDS011;15183;51.350;11.102;2023-07-24T06:34:47;1.65;;;1.33;;
27804;SDS011;15183;51.350;11.102;2023-07-24T06:37:13;1.77;;;1.67;;
27804;SDS011;15183;51.350;11.102;2023-07-24T06:39:40;3.08;;;1.23;;
27804;SDS011;15183;51.350;11.102;2023-07-24T06:42:06;1.08;;;1.00;;
27804;SDS011;15183;51.350;11.102;2023-07-24T06:44:33;1.90;;;1.52;;
27804;SDS011;15183;51.350;11.102;2023-07-24T06:46:59;2.90;;;2.17;;
27804;SDS011;15183;51.350;11.102;2023-07-24T06:49:25;2.72;;;2.17;;
27804;SDS011;15183;51.350;11.102;2023-07-24T06:51:52;1.80;;;1.38;;
27804;SDS011;15183;51.350;11.102;2023-07-24T06:54:18;2.92;;;1.92;;
27804;SDS011;15183;51.350;11.102;2023-07-24T06:56:45;2.38;;;2.17;;
27804;SDS011;15183;51.350;11.102;2023-07-24T06:59:11;5.00;;;3.25;;
27804;SDS011;15183;51.350;11.102;2023-07-24T07:01:37;3.03;;;2.72;;
27804;SDS011;15183;51.350;11.102;2023-07-24T07:04:04;3.33;;;3.03;;
27804;SDS011;15183;51.350;11.102;2023-07-24T07:06:30;3.95;;;3.35;;
27804;SDS011;15183;51.350;11.102;2023-07-24T07:08:57;3.90;;;3.05;;
27804;SDS011;15183;51.350;11.102;2023-07-24T07:11:23;4.15;;;3.10;;
27804;SDS011;15183;51.350;11.102;2023-07-24T07:13:50;4.10;;;3.00;;
27804;SDS011;15183;51.350;11.102;2023-07-24T07:16:16;4.00;;;3.60;;
27804;SDS011;15183;51.350;11.102;2023-07-24T07:18:44;3.47;;;2.95;;
27804;SDS011;15183;51.350;11.102;2023-07-24T07:21:11;3.38;;;3.08;;
27804;SDS011;15183;51.350;11.102;2023-07-24T07:23:37;2.15;;;1.95;;
27804;SDS011;15183;51.350;11.102;2023-07-24T07:26:03;3.85;;;2.85;;
27804;SDS011;15183;51.350;11.102;2023-07-24T07:28:30;2.20;;;2.03;;
27804;SDS011;15183;51.350;11.102;2023-07-24T07:30:56;3.70;;;3.25;;
27804;SDS011;15183;51.350;11.102;2023-07-24T07:33:23;4.15;;;3.00;;
27804;SDS011;15183;51.350;11.102;2023-07-24T07:35:50;3.10;;;2.83;;
27804;SDS011;15183;51.350;11.102;2023-07-24T07:38:16;3.00;;;2.28;;
27804;SDS011;15183;51.350;11.102;2023-07-24T07:40:43;3.00;;;2.70;;
27804;SDS011;15183;51.350;11.102;2023-07-24T07:43:09;3.38;;;3.08;;
27804;SDS011;15183;51.350;11.102;2023-07-24T07:45:36;3.63;;;2.70;;
27804;SDS011;15183;51.350;11.102;2023-07-24T07:48:02;3.03;;;2.65;;
27804;SDS011;15183;51.350;11.102;2023-07-24T07:50:29;2.42;;;2.20;;
27804;SDS011;15183;51.350;11.102;2023-07-24T07:52:55;2.40;;;2.20;;
27804;SDS011;15183;51.350;11.102;2023-07-24T07:55:22;3.38;;;2.40;;
27804;SDS011;15183;51.350;11.102;2023-07-24T07:57:48;3.03;;;2.33;;
27804;SDS011;15183;51.350;11.102;2023-07-24T08:00:15;3.22;;;2.00;;
27804;SDS011;15183;51.350;11.102;2023-07-24T08:02:41;2.67;;;2.47;;
27804;SDS011;15183;51.350;11.102;2023-07-24T08:05:08;3.70;;;2.53;;
27804;SDS011;15183;51.350;11.102;2023-07-24T08:07:36;2.35;;;1.95;;
27804;SDS011;15183;51.350;11.102;2023-07-24T08:10:03;2.72;;;2.30;;
27804;SDS011;15183;51.350;11.102;2023-07-24T08:12:30;2.90;;;2.60;;
27804;SDS011;15183;51.350;11.102;2023-07-24T08:14:56;3.65;;;2.88;;
27804;SDS011;15183;51.350;11.102;2023-07-24T08:17:23;2.78;;;2.42;;
27804;SDS011;15183;51.350;11.102;2023-07-24T08:19:49;6.00;;;2.50;;
27804;SDS011;15183;51.350;11.102;2023-07-24T08:22:16;3.65;;;2.47;;
27804;SDS011;15183;51.350;11.102;2023-07-24T08:24:43;2.78;;;2.33;;
27804;SDS011;15183;51.350;11.102;2023-07-24T08:27:11;2.92;;;2.35;;
27804;SDS011;15183;51.350;11.102;2023-07-24T08:29:38;2.67;;;2.30;;
27804;SDS011;15183;51.350;11.102;2023-07-24T08:32:04;3.50;;;2.47;;
27804;SDS011;15183;51.350;11.102;2023-07-24T08:34:31;2.95;;;2.53;;
27804;SDS011;15183;51.350;11.102;2023-07-24T08:36:58;2.30;;;2.10;;
27804;SDS011;15183;51.350;11.102;2023-07-24T08:39:24;2.83;;;2.30;;
27804;SDS011;15183;51.350;11.102;2023-07-24T08:41:50;3.55;;;2.42;;
27804;SDS011;15183;51.350;11.102;2023-07-24T08:44:17;3.15;;;2.70;;
27804;SDS011;15183;51.350;11.102;2023-07-24T08:46:44;4.88;;;3.15;;
27804;SDS011;15183;51.350;11.102;2023-07-24T08:49:12;3.83;;;2.65;;
27804;SDS011;15183;51.350;11.102;2023-07-24T08:51:39;3.08;;;2.78;;
27804;SDS011;15183;51.350;11.102;2023-07-24T08:54:11;2.55;;;2.35;;
27804;SDS011;15183;51.350;11.102;2023-07-24T08:56:38;2.55;;;2.33;;
27804;SDS011;15183;51.350;11.102;2023-07-24T08:59:12;2.55;;;2.35;;
27804;SDS011;15183;51.350;11.102;2023-07-24T09:01:40;2.45;;;2.25;;
27804;SDS011;15183;51.350;11.102;2023-07-24T09:04:06;4.38;;;2.72;;
27804;SDS011;15183;51.350;11.102;2023-07-24T09:06:33;3.22;;;2.50;;
27804;SDS011;15183;51.350;11.102;2023-07-24T09:08:59;2.63;;;2.40;;
27804;SDS011;15183;51.350;11.102;2023-07-24T09:11:27;4.90;;;2.72;;
27804;SDS011;15183;51.350;11.102;2023-07-24T09:13:54;3.88;;;3.10;;
27804;SDS011;15183;51.350;11.102;2023-07-24T09:16:24;4.28;;;2.90;;
27804;SDS011;15183;51.350;11.102;2023-07-24T09:18:52;3.92;;;3.03;;
27804;SDS011;15183;51.350;11.102;2023-07-24T09:21:31;4.43;;;3.30;;
27804;SDS011;15183;51.350;11.102;2023-07-24T09:24:08;4.07;;;2.72;;
27804;SDS011;15183;51.350;11.102;2023-07-24T09:26:46;2.88;;;2.58;;
27804;SDS011;15183;51.350;11.102;2023-07-24T09:29:15;2.97;;;2.75;;
27804;SDS011;15183;51.350;11.102;2023-07-24T09:31:43;4.05;;;2.63;;
27804;SDS011;15183;51.350;11.102;2023-07-24T09:34:14;3.25;;;2.95;;
27804;SDS011;15183;51.350;11.102;2023-07-24T09:36:42;3.05;;;2.65;;
27804;SDS011;15183;51.350;11.102;2023-07-24T09:39:10;5.07;;;3.42;;
27804;SDS011;15183;51.350;11.102;2023-07-24T09:41:40;3.47;;;3.08;;
27804;SDS011;15183;51.350;11.102;2023-07-24T09:44:07;7.65;;;2.63;;
27804;SDS011;15183;51.350;11.102;2023-07-24T09:46:33;6.75;;;2.72;;
27804;SDS011;15183;51.350;11.102;2023-07-24T09:49:00;7.78;;;3.30;;
27804;SDS011;15183;51.350;11.102;2023-07-24T09:51:28;3.13;;;2.70;;
27804;SDS011;15183;51.350;11.102;2023-07-24T09:53:58;4.47;;;3.08;;
27804;SDS011;15183;51.350;11.102;2023-07-24T09:56:32;7.07;;;3.00;;
27804;SDS011;15183;51.350;11.102;2023-07-24T09:59:00;5.35;;;3.28;;
27804;SDS011;15183;51.350;11.102;2023-07-24T10:01:28;4.43;;;3.03;;
27804;SDS011;15183;51.350;11.102;2023-07-24T10:03:57;4.47;;;2.95;;
27804;SDS011;15183;51.350;11.102;2023-07-24T10:06:24;6.50;;;2.97;;
27804;SDS011;15183;51.350;11.102;2023-07-24T10:08:52;5.93;;;2.60;;
27804;SDS011;15183;51.350;11.102;2023-07-24T10:11:19;5.38;;;3.40;;
27804;SDS011;15183;51.350;11.102;2023-07-24T10:13:47;4.47;;;3.13;;
27804;SDS011;15183;51.350;11.102;2023-07-24T10:16:14;5.35;;;3.35;;
27804;SDS011;15183;51.350;11.102;2023-07-24T10:18:42;4.13;;;3.47;;
27804;SDS011;15183;51.350;11.102;2023-07-24T10:21:12;4.38;;;3.83;;
27804;SDS011;15183;51.350;11.102;2023-07-24T10:23:43;3.67;;;3.28;;
27804;SDS011;15183;51.350;11.102;2023-07-24T10:26:14;3.95;;;3.50;;
27804;SDS011;15183;51.350;11.102;2023-07-24T10:28:41;5.40;;;3.50;;
27804;SDS011;15183;51.350;11.102;2023-07-24T10:31:18;3.72;;;3.17;;
27804;SDS011;15183;51.350;11.102;2023-07-24T10:33:55;4.18;;;3.60;;
27804;SDS011;15183;51.350;11.102;2023-07-24T10:36:32;5.50;;;3.65;;
27804;SDS011;15183;51.350;11.102;2023-07-24T10:39:00;3.63;;;3.33;;
27804;SDS011;15183;51.350;11.102;2023-07-24T10:41:37;3.55;;;3.25;;
27804;SDS011;15183;51.350;11.102;2023-07-24T10:44:05;3.88;;;3.22;;
27804;SDS011;15183;51.350;11.102;2023-07-24T10:46:35;3.38;;;3.08;;
27804;SDS011;15183;51.350;11.102;2023-07-24T10:49:07;3.25;;;2.92;;
27804;SDS011;15183;51.350;11.102;2023-07-24T10:51:34;6.05;;;3.60;;
27804;SDS011;15183;51.350;11.102;2023-07-24T10:54:03;3.90;;;3.50;;
27804;SDS011;15183;51.350;11.102;2023-07-24T10:56:31;3.70;;;3.15;;
27804;SDS011;15183;51.350;11.102;2023-07-24T10:59:04;3.25;;;2.95;;
27804;SDS011;15183;51.350;11.102;2023-07-24T11:01:31;3.92;;;3.53;;
27804;SDS011;15183;51.350;11.102;2023-07-24T11:03:58;3.58;;;3.28;;
27804;SDS011;15183;51.350;11.102;2023-07-24T11:06:25;3.58;;;3.00;;
27804;SDS011;15183;51.350;11.102;2023-07-24T11:08:56;3.40;;;2.85;;
27804;SDS011;15183;51.350;11.102;2023-07-24T11:11:28;3.72;;;3.30;;
27804;SDS011;15183;51.350;11.102;2023-07-24T11:13:55;4.15;;;3.22;;
27804;SDS011;15183;51.350;11.102;2023-07-24T11:16:23;4.05;;;3.65;;
27804;SDS011;15183;51.350;11.102;2023-07-24T11:18:50;6.47;;;3.13;;
27804;SDS011;15183;51.350;11.102;2023-07-24T11:21:23;5.30;;;3.33;;
27804;SDS011;15183;51.350;11.102;2023-07-24T11:23:51;4.85;;;3.58;;
27804;SDS011;15183;51.350;11.102;2023-07-24T11:26:19;3.00;;;2.70;;
27804;SDS011;15183;51.350;11.102;2023-07-24T11:28:50;4.72;;;2.83;;
27804;SDS011;15183;51.350;11.102;2023-07-24T11:31:17;4.82;;;3.47;;
27804;SDS011;15183;51.350;11.102;2023-07-24T11:33:50;4.47;;;3.25;;
27804;SDS011;15183;51.350;11.102;2023-07-24T11:36:18;3.83;;;2.92;;
27804;SDS011;15183;51.350;11.102;2023-07-24T11:38:45;3.13;;;2.88;;
27804;SDS011;15183;51.350;11.102;2023-07-24T11:41:12;3.28;;;2.80;;
27804;SDS011;15183;51.350;11.102;2023-07-24T11:43:45;4.38;;;3.33;;
27804;SDS011;15183;51.350;11.102;2023-07-24T11:46:21;3.90;;;3.30;;
27804;SDS011;15183;51.350;11.102;2023-07-24T11:48:52;3.75;;;3.20;;
27804;SDS011;15183;51.350;11.102;2023-07-24T11:51:22;5.03;;;3.05;;
27804;SDS011;15183;51.350;11.102;2023-07-24T11:53:51;7.15;;;3.30;;
27804;SDS011;15183;51.350;11.102;2023-07-24T11:56:19;4.13;;;3.65;;
27804;SDS011;15183;51.350;11.102;2023-07-24T11:58:45;4.53;;;3.50;;
27804;SDS011;15183;51.350;11.102;2023-07-24T12:01:12;4.72;;;3.78;;
27804;SDS011;15183;51.350;11.102;2023-07-24T12:03:39;4.35;;;3.67;;
27804;SDS011;15183;51.350;11.102;2023-07-24T12:06:13;7.22;;;3.70;;
27804;SDS011;15183;51.350;11.102;2023-07-24T12:08:43;5.13;;;3.80;;
27804;SDS011;15183;51.350;11.102;2023-07-24T12:11:16;5.43;;;3.90;;
27804;SDS011;15183;51.350;11.102;2023-07-24T12:13:44;4.38;;;3.63;;
27804;SDS011;15183;51.350;11.102;2023-07-24T12:16:10;4.80;;;3.72;;
27804;SDS011;15183;51.350;11.102;2023-07-24T12:18:37;7.20;;;4.00;;
27804;SDS011;15183;51.350;11.102;2023-07-24T12:21:03;9.20;;;3.78;;
27804;SDS011;15183;51.350;11.102;2023-07-24T12:23:29;6.65;;;3.78;;
27804;SDS011;15183;51.350;11.102;2023-07-24T12:25:56;5.68;;;3.83;;
27804;SDS011;15183;51.350;11.102;2023-07-24T12:28:22;5.03;;;3.38;;
27804;SDS011;15183;51.350;11.102;2023-07-24T12:30:49;5.68;;;3.53;;
27804;SDS011;15183;51.350;11.102;2023-07-24T12:33:15;4.32;;;3.28;;
27804;SDS011;15183;51.350;11.102;2023-07-24T12:35:42;8.35;;;3.78;;
27804;SDS011;15183;51.350;11.102;2023-07-24T12:38:08;3.85;;;3.22;;
27804;SDS011;15183;51.350;11.102;2023-07-24T12:40:35;8.40;;;3.58;;
27804;SDS011;15183;51.350;11.102;2023-07-24T12:43:01;6.90;;;3.83;;
27804;SDS011;15183;51.350;11.102;2023-07-24T12:45:28;4.07;;;3.10;;
27804;SDS011;15183;51.350;11.102;2023-07-24T12:47:54;4.55;;;3.13;;
27804;SDS011;15183;51.350;11.102;2023-07-24T12:50:21;4.30;;;3.50;;
27804;SDS011;15183;51.350;11.102;2023-07-24T12:52:48;4.20;;;3.38;;
27804;SDS011;15183;51.350;11.102;2023-07-24T12:55:15;4.40;;;3.17;;
27804;SDS011;15183;51.350;11.102;2023-07-24T12:57:41;7.43;;;3.45;;
27804;SDS011;15183;51.350;11.102;2023-07-24T13:00:08;3.97;;;3.28;;
27804;SDS011;15183;51.350;11.102;2023-07-24T13:02:35;4.65;;;3.33;;
27804;SDS011;15183;51.350;11.102;2023-07-24T13:05:01;3.95;;;3.28;;
27804;SDS011;15183;51.350;11.102;2023-07-24T13:07:28;4.60;;;3.63;;
27804;SDS011;15183;51.350;11.102;2023-07-24T13:09:55;4.38;;;3.55;;
27804;SDS011;15183;51.350;11.102;2023-07-24T13:12:21;4.57;;;3.22;;
27804;SDS011;15183;51.350;11.102;2023-07-24T13:14:47;4.07;;;3.15;;
27804;SDS011;15183;51.350;11.102;2023-07-24T13:17:14;3.97;;;3.50;;
27804;SDS011;15183;51.350;11.102;2023-07-24T13:19:40;3.90;;;3.10;;
27804;SDS011;15183;51.350;11.102;2023-07-24T13:22:07;4.90;;;3.38;;
27804;SDS011;15183;51.350;11.102;2023-07-24T13:24:33;9.05;;;3.80;;
27804;SDS011;15183;51.350;11.102;2023-07-24T13:27:00;4.28;;;3.78;;
27804;SDS011;15183;51.350;11.102;2023-07-24T13:29:26;4.63;;;3.40;;
27804;SDS011;15183;51.350;11.102;2023-07-24T13:31:53;4.03;;;3.55;;
27804;SDS011;15183;51.350;11.102;2023-07-24T13:34:19;3.92;;;3.47;;
27804;SDS011;15183;51.350;11.102;2023-07-24T13:36:47;5.07;;;3.80;;
27804;SDS011;15183;51.350;11.102;2023-07-24T13:39:13;4.97;;;3.85;;
27804;SDS011;15183;51.350;11.102;2023-07-24T13:41:40;5.32;;;3.88;;
27804;SDS011;15183;51.350;11.102;2023-07-24T13:44:06;3.95;;;3.25;;
27804;SDS011;15183;51.350;11.102;2023-07-24T13:46:33;6.63;;;4.03;;
27804;SDS011;15183;51.350;11.102;2023-07-24T13:48:59;3.53;;;3.20;;
27804;SDS011;15183;51.350;11.102;2023-07-24T13:51:26;5.15;;;3.90;;
27804;SDS011;15183;51.350;11.102;2023-07-24T13:53:52;5.03;;;3.85;;
27804;SDS011;15183;51.350;11.102;2023-07-24T13:56:19;5.13;;;4.10;;
27804;SDS011;15183;51.350;11.102;2023-07-24T13:58:48;5.80;;;3.70;;
27804;SDS011;15183;51.350;11.102;2023-07-24T14:01:15;4.28;;;3.45;;
27804;SDS011;15183;51.350;11.102;2023-07-24T14:03:41;4.00;;;3.60;;
27804;SDS011;15183;51.350;11.102;2023-07-24T14:06:08;3.45;;;3.15;;
27804;SDS011;15183;51.350;11.102;2023-07-24T14:08:34;4.38;;;3.45;;
27804;SDS011;15183;51.350;11.102;2023-07-24T14:11:01;4.32;;;3.60;;
27804;SDS011;15183;51.350;11.102;2023-07-24T14:13:28;6.32;;;4.53;;
27804;SDS011;15183;51.350;11.102;2023-07-24T14:15:54;5.55;;;3.42;;
27804;SDS011;15183;51.350;11.102;2023-07-24T14:18:21;5.55;;;3.60;;
27804;SDS011;15183;51.350;11.102;2023-07-24T14:20:47;4.10;;;3.65;;
27804;SDS011;15183;51.350;11.102;2023-07-24T14:23:14;4.03;;;3.63;;
27804;SDS011;15183;51.350;11.102;2023-07-24T14:25:40;3.90;;;3.50;;
27804;SDS011;15183;51.350;11.102;2023-07-24T14:28:06;4.45;;;3.47;;
27804;SDS011;15183;51.350;11.102;2023-07-24T14:30:33;4.50;;;3.63;;
27804;SDS011;15183;51.350;11.102;2023-07-24T14:32:59;4.88;;;4.20;;
27804;SDS011;15183;51.350;11.102;2023-07-24T14:35:26;5.25;;;4.40;;
27804;SDS011;15183;51.350;11.102;2023-07-24T14:37:52;4.32;;;3.72;;